createdAt,value
2023-03-28T00:02:01.874Z,12.27
2023-03-28T00:12:09.390Z,10.35
2023-03-28T00:17:14.249Z,15.60
2023-03-28T00:27:21.049Z,14.60
2023-03-28T00:32:26.115Z,13.20
2023-03-28T00:37:30.124Z,14.27
2023-03-28T00:42:43.488Z,15.80
2023-03-28T00:47:52.862Z,12.18
2023-03-28T00:53:02.361Z,17.10
2023-03-28T00:58:09.441Z,14.40
2023-03-28T01:03:16.268Z,20.63
2023-03-28T01:08:23.111Z,19.10
2023-03-28T01:13:28.253Z,24.60
2023-03-28T01:18:35.130Z,26.35
2023-03-28T01:24:19.856Z,146.23
2023-03-28T01:30:01.786Z,19.30
2023-03-28T01:35:27.650Z,17.63
2023-03-28T01:40:42.398Z,18.30
2023-03-28T01:45:56.958Z,17.52
2023-03-28T01:51:10.620Z,17.50
2023-03-28T01:56:23.242Z,20.08
2023-03-28T02:01:36.856Z,16.23
2023-03-28T02:06:47.073Z,16.83
2023-03-28T02:11:56.570Z,22.38
2023-03-28T02:17:06.505Z,21.33
2023-03-28T02:22:16.068Z,17.45
2023-03-28T02:27:22.848Z,19.85
2023-03-28T02:32:26.452Z,18.20
2023-03-28T02:37:44.089Z,35.65
2023-03-28T02:43:04.952Z,132.00
2023-03-28T02:48:18.375Z,176.43
2023-03-28T02:53:33.130Z,158.50
2023-03-28T02:58:42.706Z,93.00
2023-03-28T03:03:48.516Z,331.38
2023-03-28T03:08:52.014Z,288.15
2023-03-28T03:13:57.572Z,334.63
2023-03-28T03:19:01.152Z,155.77
2023-03-28T03:24:05.069Z,89.85
2023-03-28T03:29:10.035Z,97.00
2023-03-28T03:39:16.594Z,253.65
2023-03-28T03:44:21.500Z,449.48
2023-03-28T03:49:25.068Z,349.40
2023-03-28T03:54:28.509Z,389.90
2023-03-28T03:59:33.425Z,257.27
2023-03-28T04:04:37.131Z,286.20
2023-03-28T04:09:40.771Z,120.53
2023-03-28T04:14:45.988Z,94.60
2023-03-28T04:19:49.873Z,110.13
2023-03-28T04:24:53.555Z,56.07
2023-03-28T04:30:00.683Z,41.67
2023-03-28T04:35:04.556Z,56.30
2023-03-28T04:40:11.573Z,118.00
2023-03-28T04:45:18.056Z,58.78
2023-03-28T04:50:21.902Z,70.80
2023-03-28T04:55:25.767Z,134.27
2023-03-28T05:00:30.740Z,107.30
2023-03-28T05:05:34.531Z,62.13
2023-03-28T05:10:38.061Z,99.80
2023-03-28T05:15:43.420Z,33.70
2023-03-28T05:20:46.980Z,34.17
2023-03-28T05:25:52.602Z,20.63
2023-03-28T05:30:57.497Z,20.27
2023-03-28T05:36:02.103Z,16.25
2023-03-28T05:46:10.314Z,15.40
2023-03-28T05:51:13.989Z,18.90
2023-03-28T05:56:17.602Z,20.13
2023-03-28T06:01:23.534Z,15.77
2023-03-28T06:06:27.690Z,12.65
2023-03-28T06:11:31.331Z,8.10
2023-03-28T06:16:36.683Z,7.68
2023-03-28T06:21:40.152Z,8.27
2023-03-28T06:26:43.906Z,7.97
2023-03-28T06:31:48.758Z,6.57
2023-03-28T06:36:52.307Z,6.70
2023-03-28T06:41:55.714Z,7.23
2023-03-28T06:47:00.829Z,7.38
2023-03-28T06:52:04.348Z,12.88
2023-03-28T06:57:07.791Z,31.80
2023-03-28T07:02:13.565Z,15.83
2023-03-28T07:07:17.229Z,17.05
2023-03-28T07:12:20.769Z,13.77
2023-03-28T07:17:25.766Z,11.17
2023-03-28T07:22:29.712Z,12.10
2023-03-28T07:27:33.164Z,12.32
2023-03-28T07:32:49.697Z,9.07
2023-03-28T07:37:58.152Z,9.00
2023-03-28T07:43:02.366Z,9.73
2023-03-28T07:48:08.019Z,9.65
2023-03-28T07:53:11.729Z,9.98
2023-03-28T07:58:15.723Z,9.57
2023-03-28T08:08:24.086Z,10.43
2023-03-28T08:13:27.843Z,13.87
2023-03-28T08:18:32.712Z,11.40
2023-03-28T08:23:36.861Z,13.85
2023-03-28T08:28:41.395Z,15.23
2023-03-28T08:38:51.781Z,16.60
2023-03-28T08:49:13.042Z,18.67
2023-03-28T08:54:22.286Z,15.65
2023-03-28T08:59:31.143Z,21.80
2023-03-28T09:04:37.499Z,21.20
2023-03-28T09:09:49.214Z,19.98
2023-03-28T09:15:29.218Z,21.10
2023-03-28T09:20:43.097Z,20.85
2023-03-28T09:25:52.542Z,20.67
2023-03-28T09:31:00.183Z,19.58
2023-03-28T09:36:12.903Z,18.40
2023-03-28T09:41:21.406Z,21.05
2023-03-28T09:46:31.964Z,18.83
2023-03-28T09:51:38.673Z,17.00
2023-03-28T09:56:45.667Z,19.00
2023-03-28T10:01:52.368Z,15.93
2023-03-28T10:07:17.451Z,19.17
2023-03-28T10:17:31.379Z,17.52
2023-03-28T10:22:39.405Z,15.57
2023-03-28T10:27:43.210Z,14.48
2023-03-28T10:32:46.844Z,12.90
2023-03-28T10:37:56.316Z,20.42
2023-03-28T10:43:01.103Z,19.50
2023-03-28T10:53:33.406Z,12.30
2023-03-28T10:58:40.074Z,9.57
2023-03-28T11:03:59.895Z,14.32
2023-03-28T11:09:12.400Z,15.32
2023-03-28T11:14:34.586Z,12.95
2023-03-28T11:19:58.155Z,15.52
2023-03-28T11:25:22.009Z,14.90
2023-03-28T11:30:33.630Z,19.38
2023-03-28T11:35:42.249Z,9.05
2023-03-28T11:40:55.243Z,11.75
2023-03-28T11:46:04.946Z,12.40
2023-03-28T11:51:13.545Z,15.25
2023-03-28T11:56:29.889Z,13.30
2023-03-28T12:01:38.602Z,16.27
2023-03-28T12:06:59.560Z,15.25
2023-03-28T12:12:14.098Z,12.97
2023-03-28T12:17:22.330Z,12.75
2023-03-28T12:22:30.555Z,16.65
2023-03-28T12:27:45.281Z,14.68
2023-03-28T12:32:58.450Z,17.13
2023-03-28T12:38:19.799Z,13.32
2023-03-28T12:43:30.752Z,12.10
2023-03-28T12:48:39.084Z,12.63
2023-03-28T12:53:47.561Z,15.48
2023-03-28T12:58:54.519Z,14.85
2023-03-28T13:04:07.769Z,13.25
2023-03-28T13:09:40.449Z,10.68
2023-03-28T13:14:59.650Z,15.55
2023-03-28T13:20:27.688Z,12.70
2023-03-28T13:25:33.536Z,12.68
2023-03-28T13:30:44.000Z,10.82
2023-03-28T13:35:49.991Z,13.05
2023-03-28T13:40:59.845Z,9.63
2023-03-28T13:46:09.967Z,11.68
2023-03-28T13:51:18.400Z,8.82
2023-03-28T13:56:25.491Z,12.23
2023-03-28T14:01:37.398Z,17.20
2023-03-28T14:06:43.024Z,10.43
2023-03-28T14:11:47.102Z,12.52
2023-03-28T14:16:53.260Z,14.77
2023-03-28T14:21:56.968Z,12.38
2023-03-28T14:27:14.235Z,10.15
2023-03-28T14:32:26.935Z,12.95
2023-03-28T14:37:30.488Z,11.15
2023-03-28T14:42:34.227Z,15.80
2023-03-28T14:47:41.754Z,12.70
2023-03-28T14:52:45.258Z,15.98
2023-03-28T14:57:52.227Z,19.83
2023-03-28T15:02:57.700Z,16.85
2023-03-28T15:08:03.142Z,17.40
2023-03-28T15:13:10.630Z,14.63
2023-03-28T15:18:17.825Z,12.13
2023-03-28T15:23:27.616Z,13.55
2023-03-28T15:28:32.564Z,11.68
2023-03-28T15:33:37.485Z,12.65
2023-03-28T15:38:41.686Z,14.18
2023-03-28T15:43:59.715Z,15.63
2023-03-28T15:49:06.894Z,11.13
2023-03-28T15:54:23.872Z,12.57
2023-03-28T15:59:35.738Z,13.20
2023-03-28T16:04:40.738Z,11.57
2023-03-28T16:09:44.278Z,10.77
2023-03-28T16:14:50.137Z,12.30
2023-03-28T16:19:55.030Z,6.70
2023-03-28T16:30:01.815Z,11.60
2023-03-28T16:35:08.605Z,13.18
2023-03-28T16:40:13.084Z,16.80
2023-03-28T16:45:16.754Z,14.13
2023-03-28T16:50:21.628Z,14.77
2023-03-28T16:55:25.183Z,15.25
2023-03-28T17:00:28.834Z,14.18
2023-03-28T17:05:33.827Z,16.95
2023-03-28T17:10:40.338Z,14.77
2023-03-28T17:15:44.624Z,11.65
2023-03-28T17:20:59.677Z,14.98
2023-03-28T17:31:08.072Z,11.35
2023-03-28T17:41:27.856Z,10.23
2023-03-28T17:46:31.910Z,9.25
2023-03-28T17:51:36.912Z,12.93
2023-03-28T17:56:40.987Z,12.98
2023-03-28T18:01:44.814Z,8.40
2023-03-28T18:06:49.964Z,11.20
2023-03-28T18:11:53.489Z,10.38
2023-03-28T18:16:58.447Z,9.23
2023-03-28T18:27:06.960Z,12.18
2023-03-28T18:32:10.442Z,7.57
2023-03-28T18:37:15.426Z,8.80
2023-03-28T18:47:22.074Z,8.70
2023-03-28T18:52:29.722Z,8.27
2023-03-28T18:57:33.682Z,8.13
2023-03-28T19:02:37.678Z,8.75
2023-03-28T19:07:43.220Z,7.68
2023-03-28T19:12:47.218Z,8.38
2023-03-28T19:17:51.138Z,18.77
2023-03-28T19:22:56.005Z,8.37
2023-03-28T19:27:59.457Z,9.38
2023-03-28T19:33:05.611Z,9.95
2023-03-28T19:38:11.698Z,9.73
2023-03-28T19:48:19.077Z,9.70
2023-03-28T19:53:23.923Z,10.85
2023-03-28T20:03:31.833Z,13.50
2023-03-28T20:08:36.816Z,9.93
2023-03-28T20:13:40.828Z,11.73
2023-03-28T20:18:44.651Z,10.43
2023-03-28T20:23:49.540Z,12.80
2023-03-28T20:34:00.662Z,12.35
2023-03-28T20:39:07.069Z,11.75
2023-03-28T20:44:10.616Z,11.82
2023-03-28T20:49:14.091Z,10.07
2023-03-28T20:54:21.915Z,10.68
2023-03-28T20:59:27.363Z,12.50
2023-03-28T21:04:30.754Z,10.80
2023-03-28T21:09:35.622Z,10.27
2023-03-28T21:19:42.487Z,13.35
2023-03-28T21:24:47.569Z,12.00
2023-03-28T21:29:51.017Z,10.82
2023-03-28T21:34:57.561Z,11.15
2023-03-28T21:40:02.407Z,12.40
2023-03-28T21:45:07.846Z,11.00
2023-03-28T21:50:14.821Z,14.60
2023-03-28T21:55:19.884Z,10.40
2023-03-28T22:05:29.619Z,10.20
2023-03-28T22:10:35.636Z,11.82
2023-03-28T22:15:39.503Z,11.02
2023-03-28T22:20:44.014Z,13.55
2023-03-28T22:25:49.628Z,11.20
2023-03-28T22:30:55.681Z,9.93
2023-03-28T22:35:59.228Z,11.35
2023-03-28T22:41:04.354Z,11.02
2023-03-28T22:46:08.278Z,9.73
2023-03-28T22:51:14.105Z,10.52
2023-03-28T22:56:19.418Z,8.77
2023-03-28T23:01:26.226Z,8.93
2023-03-28T23:06:29.751Z,10.13
2023-03-28T23:11:34.701Z,9.60
2023-03-28T23:16:38.636Z,8.93
2023-03-28T23:21:43.063Z,9.53
2023-03-28T23:26:48.007Z,18.05
2023-03-28T23:36:58.172Z,11.30
2023-03-28T23:42:03.068Z,13.43
2023-03-28T23:52:10.140Z,10.52
2023-03-28T23:57:15.106Z,9.93
